createdAt,value
2022-10-13T00:00:39.165Z,23.65
2022-10-13T00:03:06.144Z,23.20
2022-10-13T00:05:33.033Z,22.85
2022-10-13T00:08:01.417Z,24.50
2022-10-13T00:10:30.722Z,23.33
2022-10-13T00:12:57.593Z,23.45
2022-10-13T00:15:26.134Z,23.15
2022-10-13T00:17:52.882Z,21.88
2022-10-13T00:20:19.629Z,24.35
2022-10-13T00:22:46.543Z,23.05
2022-10-13T00:25:13.258Z,22.50
2022-10-13T00:27:40.187Z,21.40
2022-10-13T00:30:07.349Z,19.80
2022-10-13T00:32:34.025Z,19.50
2022-10-13T00:35:00.707Z,17.33
2022-10-13T00:37:27.553Z,18.63
2022-10-13T00:39:54.539Z,17.20
2022-10-13T00:42:23.523Z,18.05
2022-10-13T00:44:57.965Z,17.58
2022-10-13T00:47:25.865Z,16.95
2022-10-13T00:49:53.642Z,18.35
2022-10-13T00:52:21.118Z,18.73
2022-10-13T00:54:48.837Z,19.90
2022-10-13T00:57:19.537Z,20.15
2022-10-13T00:59:46.550Z,18.55
2022-10-13T01:02:13.248Z,20.40
2022-10-13T01:04:44.259Z,21.30
2022-10-13T01:07:11.247Z,22.20
2022-10-13T01:09:37.969Z,21.65
2022-10-13T01:12:12.955Z,21.45
2022-10-13T01:14:50.203Z,20.20
2022-10-13T01:17:44.586Z,21.02
2022-10-13T01:20:32.911Z,21.88
2022-10-13T01:23:17.003Z,20.05
2022-10-13T01:26:07.438Z,17.88
2022-10-13T01:28:59.478Z,18.30
2022-10-13T01:31:37.888Z,16.08
2022-10-13T01:34:15.627Z,15.57
2022-10-13T01:37:09.976Z,21.60
2022-10-13T01:39:58.029Z,19.23
2022-10-13T01:42:30.241Z,16.35
2022-10-13T01:45:00.780Z,18.73
2022-10-13T01:47:29.039Z,16.90
2022-10-13T01:49:57.068Z,17.38
2022-10-13T01:52:26.257Z,17.27
2022-10-13T01:54:53.533Z,16.05
2022-10-13T01:57:35.017Z,17.13
2022-10-13T02:00:07.546Z,15.80
2022-10-13T02:02:54.381Z,15.77
2022-10-13T02:05:49.406Z,16.15
2022-10-13T02:08:25.909Z,16.92
2022-10-13T02:10:59.061Z,17.85
2022-10-13T02:15:55.675Z,21.70
2022-10-13T02:18:29.525Z,22.85
2022-10-13T02:20:56.612Z,22.63
2022-10-13T02:23:23.825Z,20.85
2022-10-13T02:25:51.239Z,22.85
2022-10-13T02:28:18.151Z,21.98
2022-10-13T02:30:46.181Z,20.50
2022-10-13T02:33:14.486Z,22.10
2022-10-13T02:35:42.139Z,21.85
2022-10-13T02:38:09.483Z,21.77
2022-10-13T02:40:36.550Z,22.75
2022-10-13T02:43:03.487Z,22.27
2022-10-13T02:45:30.408Z,21.63
2022-10-13T02:47:57.980Z,21.00
2022-10-13T02:50:24.663Z,20.75
2022-10-13T02:52:51.387Z,22.00
2022-10-13T02:55:18.278Z,21.55
2022-10-13T02:57:46.229Z,21.20
2022-10-13T03:00:16.082Z,22.08
2022-10-13T03:02:42.817Z,22.02
2022-10-13T03:05:10.388Z,22.10
2022-10-13T03:07:37.057Z,22.08
2022-10-13T03:10:05.211Z,22.33
2022-10-13T03:12:32.108Z,20.55
2022-10-13T03:14:58.835Z,21.98
2022-10-13T03:17:25.800Z,22.48
2022-10-13T03:19:52.807Z,19.83
2022-10-13T03:22:19.951Z,19.58
2022-10-13T03:24:46.846Z,21.42
2022-10-13T03:27:13.845Z,20.38
2022-10-13T03:29:40.525Z,21.17
2022-10-13T03:32:07.323Z,18.83
2022-10-13T03:34:34.058Z,19.30
2022-10-13T03:37:00.742Z,21.00
2022-10-13T03:39:32.101Z,21.05
2022-10-13T03:41:58.835Z,23.05
2022-10-13T03:44:25.566Z,22.85
2022-10-13T03:46:52.421Z,22.35
2022-10-13T03:49:19.284Z,22.65
2022-10-13T03:51:46.125Z,22.23
2022-10-13T03:54:13.229Z,24.52
2022-10-13T03:56:40.327Z,22.40
2022-10-13T03:59:07.226Z,22.88
2022-10-13T04:01:34.269Z,22.05
2022-10-13T04:04:04.234Z,25.70
2022-10-13T04:06:31.629Z,24.77
2022-10-13T04:08:58.505Z,24.70
2022-10-13T04:11:25.423Z,23.23
2022-10-13T04:13:56.651Z,23.70
2022-10-13T04:16:25.639Z,22.17
2022-10-13T04:18:58.715Z,22.83
2022-10-13T04:21:26.218Z,22.30
2022-10-13T04:23:57.782Z,24.42
2022-10-13T04:26:26.702Z,23.05
2022-10-13T04:28:56.640Z,23.05
2022-10-13T04:31:24.162Z,23.92
2022-10-13T04:33:51.362Z,24.00
2022-10-13T04:36:19.468Z,24.05
2022-10-13T04:38:49.588Z,25.00
2022-10-13T04:41:18.078Z,23.52
2022-10-13T04:43:48.465Z,23.75
2022-10-13T04:46:18.879Z,24.13
2022-10-13T04:48:46.493Z,21.30
2022-10-13T04:51:16.445Z,23.67
2022-10-13T04:53:43.701Z,22.60
2022-10-13T04:56:16.976Z,23.40
2022-10-13T04:58:45.720Z,22.60
2022-10-13T05:01:22.428Z,25.02
2022-10-13T05:03:57.253Z,23.33
2022-10-13T05:06:27.303Z,22.98
2022-10-13T05:08:57.499Z,24.25
2022-10-13T05:11:26.455Z,23.95
2022-10-13T05:13:53.506Z,27.55
2022-10-13T05:16:21.138Z,27.85
2022-10-13T05:18:48.941Z,26.38
2022-10-13T05:21:19.180Z,29.20
2022-10-13T05:23:45.981Z,28.60
2022-10-13T05:26:14.963Z,29.10
2022-10-13T05:28:41.726Z,28.10
2022-10-13T05:31:20.430Z,30.67
2022-10-13T05:33:47.742Z,30.10
2022-10-13T05:36:27.552Z,29.33
2022-10-13T05:38:56.324Z,32.10
2022-10-13T05:41:24.200Z,31.73
2022-10-13T05:43:54.130Z,28.52
2022-10-13T05:46:20.862Z,26.73
2022-10-13T05:48:47.484Z,28.13
2022-10-13T05:51:21.137Z,28.80
2022-10-13T05:53:57.648Z,28.00
2022-10-13T05:56:27.399Z,27.40
2022-10-13T05:58:57.517Z,26.10
2022-10-13T06:01:25.375Z,25.25
2022-10-13T06:03:54.048Z,24.08
2022-10-13T06:06:22.486Z,25.83
2022-10-13T06:08:50.324Z,26.77
2022-10-13T06:11:17.653Z,26.98
2022-10-13T06:13:44.345Z,25.15
2022-10-13T06:16:11.006Z,26.60
2022-10-13T06:18:37.722Z,27.67
2022-10-13T06:21:04.429Z,26.65
2022-10-13T06:23:31.147Z,27.08
2022-10-13T06:25:57.862Z,25.90
2022-10-13T06:28:24.715Z,31.08
2022-10-13T06:30:56.554Z,31.05
2022-10-13T06:33:24.316Z,28.98
2022-10-13T06:35:52.595Z,27.98
2022-10-13T06:38:19.977Z,28.27
2022-10-13T06:40:48.256Z,30.20
2022-10-13T06:43:14.894Z,29.13
2022-10-13T06:45:41.777Z,29.25
2022-10-13T06:48:08.566Z,25.17
2022-10-13T06:50:39.410Z,28.10
2022-10-13T06:53:08.746Z,25.88
2022-10-13T06:55:35.382Z,23.35
2022-10-13T06:58:02.043Z,27.95
2022-10-13T07:00:28.757Z,26.23
2022-10-13T07:02:55.489Z,25.98
2022-10-13T07:05:22.136Z,25.58
2022-10-13T07:07:52.152Z,25.60
2022-10-13T07:10:18.820Z,26.13
2022-10-13T07:12:45.442Z,25.95
2022-10-13T07:15:12.140Z,24.23
2022-10-13T07:17:39.123Z,26.90
2022-10-13T07:20:07.465Z,26.00
2022-10-13T07:22:34.517Z,24.42
2022-10-13T07:25:01.302Z,24.80
2022-10-13T07:27:28.302Z,25.75
2022-10-13T07:29:55.759Z,27.05
2022-10-13T07:32:22.413Z,23.80
2022-10-13T07:34:53.122Z,22.85
2022-10-13T07:37:20.039Z,24.48
2022-10-13T07:39:47.089Z,25.20
2022-10-13T07:42:13.820Z,24.05
2022-10-13T07:44:40.467Z,25.42
2022-10-13T07:47:07.158Z,25.67
2022-10-13T07:49:33.923Z,27.40
2022-10-13T07:52:04.258Z,27.02
2022-10-13T07:54:30.983Z,26.45
2022-10-13T07:56:57.843Z,27.65
2022-10-13T07:59:24.502Z,25.85
2022-10-13T08:01:51.518Z,26.17
2022-10-13T08:04:18.328Z,26.63
2022-10-13T08:06:49.509Z,25.50
2022-10-13T08:09:26.645Z,27.33
2022-10-13T08:12:00.751Z,25.45
2022-10-13T08:14:29.189Z,27.17
2022-10-13T08:16:56.725Z,25.05
2022-10-13T08:19:23.859Z,26.02
2022-10-13T08:21:59.245Z,25.85
2022-10-13T08:24:27.624Z,26.40
2022-10-13T08:26:55.173Z,29.88
2022-10-13T08:29:23.511Z,29.58
2022-10-13T08:31:52.393Z,26.48
2022-10-13T08:34:19.599Z,27.80
2022-10-13T08:36:46.450Z,26.63
2022-10-13T08:39:14.195Z,27.88
2022-10-13T08:41:46.366Z,28.13
2022-10-13T08:47:13.441Z,29.38
2022-10-13T08:49:42.560Z,28.45
2022-10-13T08:52:29.560Z,27.85
2022-10-13T08:54:57.240Z,28.50
2022-10-13T08:57:24.387Z,28.45
2022-10-13T08:59:52.108Z,28.48
2022-10-13T09:02:30.447Z,27.90
2022-10-13T09:04:59.212Z,26.85
2022-10-13T09:07:29.563Z,28.98
2022-10-13T09:09:56.274Z,30.73
2022-10-13T09:12:25.146Z,27.98
2022-10-13T09:15:03.291Z,27.00
2022-10-13T09:17:30.033Z,27.60
2022-10-13T09:20:07.516Z,29.02
2022-10-13T09:22:39.147Z,26.27
2022-10-13T09:25:11.669Z,27.58
2022-10-13T09:27:43.345Z,29.05
2022-10-13T09:30:38.487Z,30.25
2022-10-13T09:33:08.897Z,27.02
2022-10-13T09:35:37.067Z,27.55
2022-10-13T09:38:17.642Z,28.45
2022-10-13T09:41:24.962Z,24.95
2022-10-13T09:43:51.519Z,29.42
2022-10-13T09:46:32.951Z,27.00
2022-10-13T09:49:19.713Z,28.60
2022-10-13T09:51:47.057Z,31.27
2022-10-13T09:54:34.912Z,28.08
2022-10-13T09:57:05.455Z,31.73
2022-10-13T09:59:35.921Z,28.65
2022-10-13T10:02:26.663Z,25.13
2022-10-13T10:04:55.164Z,29.67
2022-10-13T10:07:25.873Z,30.02
2022-10-13T10:09:58.458Z,29.60
2022-10-13T10:12:29.346Z,30.48
2022-10-13T10:14:56.047Z,30.25
2022-10-13T10:17:37.171Z,30.13
2022-10-13T10:20:22.501Z,25.80
2022-10-13T10:22:58.005Z,27.75
2022-10-13T10:25:52.349Z,27.90
2022-10-13T10:28:58.162Z,28.48
2022-10-13T10:31:33.698Z,32.30
2022-10-13T10:34:22.212Z,30.75
2022-10-13T10:36:48.811Z,29.98
2022-10-13T10:39:18.429Z,30.63
2022-10-13T10:41:54.317Z,33.42
2022-10-13T10:44:36.739Z,32.63
2022-10-13T10:47:19.705Z,33.30
2022-10-13T10:49:50.861Z,31.40
2022-10-13T10:52:23.584Z,31.95
2022-10-13T10:55:28.833Z,28.15
2022-10-13T10:58:20.960Z,34.10
2022-10-13T11:01:13.909Z,35.45
2022-10-13T11:04:36.993Z,31.85
2022-10-13T11:07:04.162Z,33.63
2022-10-13T11:09:42.829Z,33.65
2022-10-13T11:12:22.212Z,32.90
2022-10-13T11:14:55.213Z,30.33
2022-10-13T11:17:31.434Z,32.65
2022-10-13T11:19:59.164Z,31.77
2022-10-13T11:22:27.075Z,29.77
2022-10-13T11:25:00.199Z,29.83
2022-10-13T11:29:56.274Z,26.45
2022-10-13T11:32:26.204Z,32.63
2022-10-13T11:35:05.086Z,32.83
2022-10-13T11:38:09.261Z,30.70
2022-10-13T11:41:22.550Z,34.38
2022-10-13T11:44:03.844Z,30.77
2022-10-13T11:46:53.301Z,34.13
2022-10-13T11:49:38.665Z,29.50
2022-10-13T11:52:19.724Z,31.10
2022-10-13T11:54:49.246Z,30.57
2022-10-13T11:57:24.886Z,34.38
2022-10-13T11:59:55.380Z,28.38
2022-10-13T12:02:51.911Z,28.52
2022-10-13T12:05:28.175Z,31.55
2022-10-13T12:07:57.419Z,26.60
2022-10-13T12:10:31.845Z,30.20
2022-10-13T12:13:01.038Z,28.17
2022-10-13T12:15:33.990Z,28.63
2022-10-13T12:18:00.772Z,28.95
2022-10-13T12:20:32.114Z,26.27
2022-10-13T12:22:58.804Z,24.60
2022-10-13T12:25:30.231Z,28.90
2022-10-13T12:28:00.989Z,28.00
2022-10-13T12:30:36.321Z,31.27
2022-10-13T12:33:04.785Z,27.60
2022-10-13T12:35:33.472Z,26.70
2022-10-13T12:38:06.922Z,29.80
2022-10-13T12:40:35.145Z,28.92
2022-10-13T12:43:04.113Z,28.95
2022-10-13T12:45:32.733Z,25.52
2022-10-13T12:47:59.491Z,30.02
2022-10-13T12:50:28.961Z,31.05
2022-10-13T12:53:08.354Z,31.50
2022-10-13T12:55:38.266Z,29.15
2022-10-13T12:58:05.025Z,24.63
2022-10-13T13:00:31.781Z,30.90
2022-10-13T13:03:03.745Z,29.67
2022-10-13T13:05:50.827Z,27.67
2022-10-13T13:08:29.786Z,24.27
2022-10-13T13:10:59.390Z,27.38
2022-10-13T13:13:26.993Z,27.90
2022-10-13T13:15:54.379Z,28.50
2022-10-13T13:18:27.009Z,27.35
2022-10-13T13:20:54.282Z,25.85
2022-10-13T13:23:21.878Z,30.23
2022-10-13T13:26:00.266Z,27.75
2022-10-13T13:28:31.654Z,28.75
2022-10-13T13:31:01.996Z,26.00
2022-10-13T13:33:28.697Z,25.27
2022-10-13T13:35:58.569Z,26.08
2022-10-13T13:38:25.205Z,24.83
2022-10-13T13:40:51.890Z,30.20
2022-10-13T13:43:18.571Z,28.83
2022-10-13T13:45:45.515Z,28.48
2022-10-13T13:48:12.957Z,26.08
2022-10-13T13:50:40.321Z,24.98
2022-10-13T13:53:07.468Z,31.77
2022-10-13T13:55:34.210Z,29.65
2022-10-13T13:58:01.402Z,27.00
2022-10-13T14:00:28.102Z,26.95
2022-10-13T14:02:56.243Z,26.10
2022-10-13T14:05:23.568Z,28.55
2022-10-13T14:07:53.521Z,27.40
2022-10-13T14:10:20.267Z,26.42
2022-10-13T14:12:47.234Z,27.15
2022-10-13T14:15:13.973Z,27.17
2022-10-13T14:17:40.663Z,27.75
2022-10-13T14:20:07.771Z,25.77
2022-10-13T14:22:38.718Z,26.42
2022-10-13T14:25:06.847Z,24.33
2022-10-13T14:30:59.179Z,28.42
2022-10-13T14:33:26.599Z,28.05
2022-10-13T14:35:59.751Z,24.55
2022-10-13T14:38:26.706Z,25.20
2022-10-13T14:40:53.561Z,26.80
2022-10-13T14:43:20.366Z,29.75
2022-10-13T14:45:47.409Z,30.80
2022-10-13T14:48:15.405Z,26.38
2022-10-13T14:50:42.124Z,26.45
2022-10-13T14:53:11.331Z,29.38
2022-10-13T14:55:37.992Z,23.45
2022-10-13T14:58:04.778Z,26.60
2022-10-13T15:00:31.562Z,23.88
2022-10-13T15:02:58.745Z,26.88
2022-10-13T15:05:25.479Z,24.15
2022-10-13T15:07:52.216Z,24.02
2022-10-13T15:10:18.939Z,20.42
2022-10-13T15:12:45.652Z,21.05
2022-10-13T15:15:12.603Z,19.30
2022-10-13T15:17:39.361Z,20.17
2022-10-13T15:20:06.770Z,23.17
2022-10-13T15:22:33.558Z,18.88
2022-10-13T15:25:00.302Z,17.88
2022-10-13T15:27:27.296Z,16.90
2022-10-13T15:29:54.013Z,17.90
2022-10-13T15:32:21.712Z,16.50
2022-10-13T15:34:54.692Z,16.48
2022-10-13T15:37:21.381Z,17.25
2022-10-13T15:39:51.937Z,17.20
2022-10-13T15:42:21.705Z,16.52
2022-10-13T15:45:08.642Z,18.83
2022-10-13T15:47:36.446Z,18.33
2022-10-13T15:50:03.772Z,17.02
2022-10-13T15:52:34.717Z,15.27
2022-10-13T15:55:01.908Z,17.52
2022-10-13T15:57:28.578Z,19.42
2022-10-13T15:59:55.262Z,16.10
2022-10-13T16:02:24.116Z,16.15
2022-10-13T16:04:56.649Z,17.60
2022-10-13T16:07:23.361Z,16.60
2022-10-13T16:09:50.003Z,17.67
2022-10-13T16:12:16.762Z,19.20
2022-10-13T16:14:43.539Z,18.45
2022-10-13T16:17:10.209Z,19.85
2022-10-13T16:19:36.854Z,17.15
2022-10-13T16:22:03.954Z,21.00
2022-10-13T16:24:30.700Z,19.35
2022-10-13T16:26:57.421Z,16.35
2022-10-13T16:29:24.912Z,16.67
2022-10-13T16:31:51.647Z,17.27
2022-10-13T16:34:18.446Z,19.65
2022-10-13T16:36:45.156Z,17.80
2022-10-13T16:39:11.854Z,17.42
2022-10-13T16:41:39.872Z,17.88
2022-10-13T16:44:06.628Z,18.70
2022-10-13T16:46:33.402Z,17.77
2022-10-13T16:49:00.331Z,16.35
2022-10-13T16:51:27.977Z,17.90
2022-10-13T16:54:01.193Z,16.58
2022-10-13T16:56:31.072Z,17.30
2022-10-13T16:58:59.928Z,17.13
2022-10-13T17:01:27.677Z,14.95
2022-10-13T17:03:54.943Z,15.43
2022-10-13T17:06:23.768Z,15.93
2022-10-13T17:09:00.636Z,21.13
2022-10-13T17:11:29.910Z,15.77
2022-10-13T17:13:57.811Z,15.88
2022-10-13T17:16:25.299Z,15.40
2022-10-13T17:18:52.132Z,15.25
2022-10-13T17:21:21.051Z,15.50
2022-10-13T17:23:49.016Z,15.93
2022-10-13T17:26:17.194Z,15.80
2022-10-13T17:28:44.922Z,16.23
2022-10-13T17:31:14.384Z,17.38
2022-10-13T17:33:41.746Z,18.10
2022-10-13T17:36:12.809Z,16.40
2022-10-13T17:38:39.718Z,16.95
2022-10-13T17:41:07.965Z,16.15
2022-10-13T17:43:37.594Z,22.90
2022-10-13T17:46:37.288Z,21.98
2022-10-13T17:49:06.358Z,21.02
2022-10-13T17:51:33.341Z,18.73
2022-10-13T17:54:00.438Z,18.77
2022-10-13T17:56:28.215Z,19.52
2022-10-13T17:58:55.173Z,21.67
2022-10-13T18:01:25.482Z,27.02
2022-10-13T18:03:57.772Z,22.08
2022-10-13T18:06:43.739Z,21.95
2022-10-13T18:11:39.235Z,16.80
2022-10-13T18:14:06.240Z,17.45
2022-10-13T18:16:33.156Z,17.35
2022-10-13T18:18:59.997Z,18.88
2022-10-13T18:21:26.811Z,17.73
2022-10-13T18:23:55.570Z,17.08
2022-10-13T18:26:22.491Z,15.68
2022-10-13T18:28:49.659Z,14.57
2022-10-13T18:31:27.926Z,15.20
2022-10-13T18:34:07.866Z,15.98
2022-10-13T18:36:40.038Z,15.93
2022-10-13T18:39:11.591Z,18.00
2022-10-13T18:41:39.285Z,16.13
2022-10-13T18:44:06.868Z,16.95
2022-10-13T18:46:34.597Z,17.33
2022-10-13T18:49:02.642Z,16.15
2022-10-13T18:51:35.678Z,16.90
2022-10-13T18:54:03.186Z,19.20
2022-10-13T18:56:32.982Z,19.42
2022-10-13T18:59:01.882Z,23.35
2022-10-13T19:01:31.243Z,23.70
2022-10-13T19:03:58.000Z,24.75
2022-10-13T19:06:27.239Z,24.83
2022-10-13T19:09:00.527Z,28.15
2022-10-13T19:11:28.490Z,24.23
2022-10-13T19:13:55.471Z,21.23
2022-10-13T19:16:23.733Z,19.85
2022-10-13T19:18:51.163Z,23.42
2022-10-13T19:21:19.568Z,24.23
2022-10-13T19:23:46.373Z,24.60
2022-10-13T19:26:22.410Z,21.33
2022-10-13T19:28:50.358Z,23.15
2022-10-13T19:31:20.111Z,21.65
2022-10-13T19:33:47.873Z,21.50
2022-10-13T19:36:45.093Z,23.10
2022-10-13T19:39:16.037Z,21.45
2022-10-13T19:41:44.534Z,22.55
2022-10-13T19:44:11.394Z,22.45
2022-10-13T19:46:39.565Z,19.90
2022-10-13T19:49:06.280Z,20.40
2022-10-13T19:51:34.011Z,20.63
2022-10-13T19:54:01.482Z,20.00
2022-10-13T19:56:33.848Z,19.92
2022-10-13T19:59:01.743Z,19.70
2022-10-13T20:01:28.611Z,20.80
2022-10-13T20:03:57.669Z,20.40
2022-10-13T20:06:24.409Z,19.75
2022-10-13T20:08:51.330Z,19.40
2022-10-13T20:11:23.905Z,20.02
2022-10-13T20:16:19.806Z,19.38
2022-10-13T20:18:51.658Z,19.13
2022-10-13T20:21:18.714Z,19.50
2022-10-13T20:23:45.603Z,19.75
2022-10-13T20:26:12.823Z,22.55
2022-10-13T20:28:43.001Z,21.73
2022-10-13T20:31:12.567Z,21.25
2022-10-13T20:33:39.615Z,19.50
2022-10-13T20:36:08.876Z,22.55
2022-10-13T20:38:36.422Z,21.73
2022-10-13T20:41:05.001Z,22.77
2022-10-13T20:43:31.846Z,22.25
2022-10-13T20:46:05.882Z,21.83
2022-10-13T20:48:57.749Z,21.13
2022-10-13T20:51:22.335Z,28.77
2022-10-13T20:53:49.162Z,27.50
2022-10-13T20:56:19.110Z,23.08
2022-10-13T20:58:46.651Z,20.67
2022-10-13T21:01:13.847Z,20.55
2022-10-13T21:03:40.989Z,21.42
2022-10-13T21:06:11.202Z,19.95
2022-10-13T21:08:37.925Z,19.67
2022-10-13T21:11:09.845Z,20.13
2022-10-13T21:13:37.605Z,18.83
2022-10-13T21:16:16.353Z,19.15
2022-10-13T21:18:50.555Z,19.20
2022-10-13T21:21:22.766Z,19.25
2022-10-13T21:24:02.861Z,18.83
2022-10-13T21:26:31.114Z,19.35
2022-10-13T21:28:58.424Z,20.15
2022-10-13T21:31:25.745Z,19.35
2022-10-13T21:33:53.424Z,22.27
2022-10-13T21:36:28.820Z,19.45
2022-10-13T21:39:00.606Z,20.98
2022-10-13T21:41:28.203Z,20.05
2022-10-13T21:43:55.237Z,19.48
2022-10-13T21:46:21.925Z,18.92
2022-10-13T21:48:54.299Z,18.70
2022-10-13T21:51:23.822Z,18.17
2022-10-13T21:53:58.444Z,19.63
2022-10-13T21:56:26.154Z,18.88
2022-10-13T21:58:53.778Z,18.52
2022-10-13T22:01:21.105Z,19.48
2022-10-13T22:03:48.420Z,19.98
2022-10-13T22:06:19.665Z,20.60
2022-10-13T22:08:48.598Z,20.00
2022-10-13T22:11:21.884Z,20.00
2022-10-13T22:13:48.811Z,19.10
2022-10-13T22:16:19.107Z,19.45
2022-10-13T22:18:46.663Z,17.73
2022-10-13T22:21:15.991Z,19.00
2022-10-13T22:23:43.120Z,17.73
2022-10-13T22:26:10.573Z,18.77
2022-10-13T22:28:37.994Z,18.30
2022-10-13T22:31:10.575Z,18.45
2022-10-13T22:33:38.594Z,17.05
2022-10-13T22:36:10.152Z,17.50
2022-10-13T22:38:36.855Z,17.08
2022-10-13T22:41:05.501Z,16.63
2022-10-13T22:43:32.785Z,16.13
2022-10-13T22:46:11.885Z,15.98
2022-10-13T22:48:40.917Z,15.35
2022-10-13T22:51:09.710Z,15.95
2022-10-13T22:53:36.738Z,16.77
2022-10-13T22:56:11.650Z,15.82
2022-10-13T22:58:38.587Z,16.40
2022-10-13T23:01:11.734Z,15.10
2022-10-13T23:06:06.709Z,14.32
2022-10-13T23:08:34.350Z,14.20
2022-10-13T23:11:01.170Z,16.30
2022-10-13T23:13:27.967Z,16.40
2022-10-13T23:16:09.315Z,15.77
2022-10-13T23:18:38.218Z,15.32
2022-10-13T23:21:10.771Z,17.25
2022-10-13T23:23:37.819Z,15.57
2022-10-13T23:26:15.440Z,15.80
2022-10-13T23:28:42.927Z,15.52
2022-10-13T23:31:12.704Z,15.40
2022-10-13T23:33:39.893Z,16.65
2022-10-13T23:36:07.202Z,15.75
2022-10-13T23:38:34.517Z,15.80
2022-10-13T23:41:09.695Z,15.52
2022-10-13T23:43:38.406Z,14.75
2022-10-13T23:46:05.339Z,14.80
2022-10-13T23:48:31.972Z,15.07
2022-10-13T23:50:58.674Z,16.17
2022-10-13T23:53:25.415Z,14.27
2022-10-13T23:55:52.062Z,13.43
2022-10-13T23:58:25.258Z,14.20
